Santa Barbara Municipal Airport
KSBA : now visible

Airfield :











YOU CAN JOIN US ON...

 
LOGIN :

Register | Disclaimer

   EN    FR    IT 

 









Legend :    VFR   Marginal VFR   IFR   Intensive IFR   Very Intensive IFR
Visi :
Ceiling :
>= 8 km
>= 3000ft
5 to 8 km
1000 to 3000 ft
1500m to 5 km
500 to 1000 ft
800 to 1500m
200 to 500 ft
< 800m
< 200 ft
Symbols :   Thunderstorms  Fog  Heavy snow  Heavy precipitations  Wind > 20 kt






- Airport Elevation : 13 ft
- IATA code : SBA


KSBA - Santa Barbara Municipal

CURRENT METAR :
  • 110453Z AUTO 00000KT 10SM CLR 08/08 A3021 RMK AO2 SLP228 T00830078

EXPIRED METARs :
  • 110353Z AUTO 29003KT 10SM CLR 09/08 A3021 RMK AO2 SLP229 T00940083
  • 110253Z AUTO 00000KT 10SM CLR 11/09 A3020 RMK AO2 SLP226 T01060094 53005
  • 110153Z 00000KT 10SM CLR 12/11 A3018 RMK AO2 SLP218 T01220106

TAF KSBA
Valid from the 11 at 00:00 until the 12 at 00:00 UTC


102324Z 1100/1124 21006KT P6SM BKN250
FM110200 VRB03KT P6SM SCT200
FM112100 24008KT P6SM SCT200



MET'MAP, your aeronautical weather chart ! - Copyright ORBIFLY December 2007 - Disclaimer

ORBIFLY MET'MAP TEAM :

Programming & Development : Alexandra Zaïnal
Concept & original design : Baudouin d'Aumeries
Assistance for programming : Marc-Olivier Méhu
Technical & hardware support : Manuel Goepfert

Contact : metmap@orbifly.com




SOURCES & CREDITS :

   NOAA       Earth
Advisory